Time;durP1;ratioP1;P1;durP2;ratioP2;P2;SDS_P1;SDS_P2;PMS_P1;PMS_P2;Temp;Humidity;BMP_temperature;BMP_pressure;BME280_temperature;BME280_humidity;BME280_pressure;Samples;Min_cycle;Max_cycle;Signal;HPM_P1;HPM_P2
2021/06/09 00:00:46;;;;;;;;;;;15.80;98.40;;;;;;5068282;28;19925;-74
2021/06/09 00:03:12;;;;;;;;;;;15.80;98.60;;;;;;5069084;28;19935;-74
2021/06/09 00:05:37;;;;;;;;;;;15.70;98.10;;;;;;5068147;28;19944;-74
2021/06/09 00:08:03;;;;;;;;;;;15.70;98.90;;;;;;5069557;28;20386;-74
2021/06/09 00:10:28;;;;;;;;;;;15.60;99.70;;;;;;5067991;28;19912;-74
2021/06/09 00:12:54;;;;;;;;;;;15.60;98.40;;;;;;5062489;28;19915;-74
2021/06/09 00:15:19;;;;;;;;;;;15.60;99.90;;;;;;5069089;28;19908;-74
2021/06/09 00:17:44;;;;;;;;;;;15.50;99.90;;;;;;5067234;28;19997;-74
2021/06/09 00:20:13;;;;;;;;;;;15.50;99.80;;;;;;5068577;28;19916;-74
2021/06/09 00:22:38;;;;;;;;;;;15.50;99.10;;;;;;5068005;28;19915;-74
2021/06/09 00:25:13;;;;;;;;;;;15.40;99.90;;;;;;5069296;28;19916;-74
2021/06/09 00:27:39;;;;;;;;;;;15.40;99.90;;;;;;5061303;28;20385;-74
2021/06/09 00:30:05;;;;;;;;;;;15.30;99.90;;;;;;5068248;28;19913;-74
2021/06/09 00:32:30;;;;;;;;;;;15.30;99.90;;;;;;5064572;28;19908;-74
2021/06/09 00:34:56;;;;;;;;;;;15.30;99.90;;;;;;5068865;28;20129;-74
2021/06/09 00:37:21;;;;;;;;;;;15.20;99.90;;;;;;5067332;28;19909;-74
2021/06/09 00:39:47;;;;;;;;;;;15.20;99.90;;;;;;5068785;28;19926;-74
2021/06/09 00:42:18;;;;;;;;;;;15.10;99.90;;;;;;5068253;28;20285;-74
2021/06/09 00:44:43;;;;;;;;;;;15.10;99.90;;;;;;5068474;28;19908;-74
2021/06/09 00:47:09;;;;;;;;;;;15.10;99.90;;;;;;5060940;28;20029;-74
2021/06/09 00:49:34;;;;;;;;;;;15.10;99.90;;;;;;5066027;28;19912;-74
2021/06/09 00:52:00;;;;;;;;;;;15.10;99.90;;;;;;5066486;28;20420;-74
2021/06/09 00:54:25;;;;;;;;;;;15.10;99.90;;;;;;5063965;28;19935;-74
2021/06/09 00:56:51;;;;;;;;;;;15.10;99.90;;;;;;5067076;28;20319;-74
2021/06/09 00:59:16;;;;;;;;;;;15.10;99.90;;;;;;5068404;28;20532;-74
2021/06/09 01:01:42;;;;;;;;;;;15.00;99.90;;;;;;5068724;28;19912;-74
2021/06/09 01:04:07;;;;;;;;;;;15.00;99.90;;;;;;5067244;28;19908;-74
2021/06/09 01:06:32;;;;;;;;;;;15.00;99.90;;;;;;5067361;28;20352;-74
2021/06/09 01:08:58;;;;;;;;;;;14.90;99.90;;;;;;5068413;28;19909;-74
2021/06/09 01:11:25;;;;;;;;;;;14.80;99.90;;;;;;5068200;28;19916;-73
2021/06/09 01:13:51;;;;;;;;;;;14.80;99.90;;;;;;5066786;28;19943;-74
2021/06/09 01:16:17;;;;;;;;;;;14.70;99.90;;;;;;5059336;28;20006;-74
2021/06/09 01:18:42;;;;;;;;;;;14.70;99.90;;;;;;5066982;28;19916;-72
2021/06/09 01:21:08;;;;;;;;;;;14.60;99.90;;;;;;5068201;28;20403;-72
2021/06/09 01:23:34;;;;;;;;;;;14.60;99.90;;;;;;5067434;28;19909;-73
2021/06/09 01:26:00;;;;;;;;;;;14.60;99.90;;;;;;5067777;28;19908;-72
2021/06/09 01:28:25;;;;;;;;;;;14.50;99.90;;;;;;5071267;28;19908;-73
2021/06/09 01:30:51;;;;;;;;;;;14.50;99.90;;;;;;5070803;28;19912;-74
2021/06/09 01:33:18;;;;;;;;;;;14.40;99.90;;;;;;5072024;28;19908;-73
2021/06/09 01:35:43;;;;;;;;;;;14.40;99.90;;;;;;5071417;28;20024;-73
2021/06/09 01:38:09;;;;;;;;;;;14.40;99.90;;;;;;5071068;28;20027;-74
2021/06/09 01:40:35;;;;;;;;;;;14.30;99.90;;;;;;5071123;28;19923;-74
2021/06/09 01:43:02;;;;;;;;;;;14.30;99.90;;;;;;5062598;28;19948;-74
2021/06/09 01:45:29;;;;;;;;;;;14.30;99.90;;;;;;5070301;28;19991;-74
2021/06/09 01:47:55;;;;;;;;;;;14.10;99.90;;;;;;5071074;28;20432;-74
2021/06/09 01:50:21;;;;;;;;;;;14.10;99.90;;;;;;5070441;28;19912;-74
2021/06/09 01:52:47;;;;;;;;;;;14.10;99.90;;;;;;5063839;28;20550;-75
2021/06/09 01:55:13;;;;;;;;;;;14.00;99.90;;;;;;5069348;28;20382;-74
2021/06/09 01:57:39;;;;;;;;;;;14.00;99.90;;;;;;5071251;28;19915;-74
2021/06/09 02:00:13;;;;;;;;;;;14.00;99.90;;;;;;5053412;28;19920;-75
2021/06/09 02:02:38;;;;;;;;;;;13.90;99.90;;;;;;5062189;28;20386;-74
2021/06/09 02:05:08;;;;;;;;;;;13.90;99.90;;;;;;5069961;28;19908;-74
2021/06/09 02:07:35;;;;;;;;;;;13.80;99.90;;;;;;5071085;28;20048;-75
2021/06/09 02:10:01;;;;;;;;;;;13.80;99.90;;;;;;5070735;28;19942;-75
2021/06/09 02:12:26;;;;;;;;;;;13.70;99.90;;;;;;5067839;28;19948;-75
2021/06/09 02:14:52;;;;;;;;;;;13.70;99.90;;;;;;5068773;28;19943;-74
2021/06/09 02:17:17;;;;;;;;;;;13.70;99.90;;;;;;5071207;28;20290;-74
2021/06/09 02:19:43;;;;;;;;;;;13.70;99.90;;;;;;5070506;28;20090;-74
2021/06/09 02:22:08;;;;;;;;;;;13.70;99.90;;;;;;5070200;28;19923;-75
2021/06/09 02:24:33;;;;;;;;;;;13.70;99.90;;;;;;5067238;28;20396;-74
2021/06/09 02:26:59;;;;;;;;;;;13.70;99.90;;;;;;5070949;28;19939;-74
2021/06/09 02:29:24;;;;;;;;;;;13.60;99.90;;;;;;5070335;28;19918;-74
2021/06/09 02:31:50;;;;;;;;;;;13.60;99.90;;;;;;5069624;28;19916;-74
2021/06/09 02:34:17;;;;;;;;;;;13.50;99.90;;;;;;5068956;28;19909;-74
2021/06/09 02:36:43;;;;;;;;;;;13.50;99.90;;;;;;5069613;28;19920;-75
2021/06/09 02:39:09;;;;;;;;;;;13.50;99.90;;;;;;5069994;28;19916;-74
2021/06/09 02:41:34;;;;;;;;;;;13.50;99.90;;;;;;5070230;28;19918;-74
2021/06/09 02:44:00;;;;;;;;;;;13.50;99.90;;;;;;5069764;28;19954;-74
2021/06/09 02:46:29;;;;;;;;;;;13.50;99.90;;;;;;5065890;28;19923;-74
2021/06/09 02:49:09;;;;;;;;;;;13.40;99.90;;;;;;5056447;28;19909;-74
2021/06/09 02:51:36;;;;;;;;;;;13.40;99.90;;;;;;5069374;28;19920;-74
2021/06/09 02:54:12;;;;;;;;;;;13.40;99.90;;;;;;5069468;28;19908;-74
2021/06/09 02:56:58;;;;;;;;;;;13.40;99.90;;;;;;5068701;28;19926;-74
2021/06/09 02:59:29;;;;;;;;;;;13.30;99.90;;;;;;5065288;28;20053;-74
2021/06/09 03:02:14;;;;;;;;;;;13.30;99.90;;;;;;5069999;28;19939;-74
2021/06/09 03:04:52;;;;;;;;;;;13.30;99.90;;;;;;5068878;28;19908;-74
2021/06/09 03:07:26;;;;;;;;;;;13.30;99.90;;;;;;5058030;28;19912;-74
2021/06/09 03:09:56;;;;;;;;;;;13.30;99.90;;;;;;5069600;28;20365;-74
2021/06/09 03:12:35;;;;;;;;;;;13.20;99.90;;;;;;5067245;28;19962;-74
2021/06/09 03:15:10;;;;;;;;;;;13.30;99.90;;;;;;5067362;28;19962;-74
2021/06/09 03:17:39;;;;;;;;;;;13.20;99.90;;;;;;5062767;28;19954;-74
2021/06/09 03:20:07;;;;;;;;;;;13.30;99.90;;;;;;5069701;28;20302;-75
2021/06/09 03:22:43;;;;;;;;;;;13.30;99.90;;;;;;5068808;28;19908;-74
2021/06/09 03:25:11;;;;;;;;;;;13.20;99.90;;;;;;5069602;28;20419;-74
2021/06/09 03:27:44;;;;;;;;;;;13.20;99.90;;;;;;5067688;28;19908;-74
2021/06/09 03:30:10;;;;;;;;;;;13.20;99.90;;;;;;5061555;28;19908;-74
2021/06/09 03:32:38;;;;;;;;;;;13.30;99.90;;;;;;5049567;28;19909;-74
2021/06/09 03:35:09;;;;;;;;;;;13.30;99.90;;;;;;5069935;28;19909;-74
2021/06/09 03:37:36;;;;;;;;;;;13.30;99.90;;;;;;5067231;28;19955;-74
2021/06/09 03:40:05;;;;;;;;;;;13.30;99.90;;;;;;5069901;28;19955;-75
2021/06/09 03:42:33;;;;;;;;;;;13.30;99.90;;;;;;5068494;28;19954;-75
2021/06/09 03:44:59;;;;;;;;;;;13.40;99.90;;;;;;5069293;28;19951;-74
2021/06/09 03:47:26;;;;;;;;;;;13.40;99.90;;;;;;5067527;28;20363;-75
2021/06/09 03:49:52;;;;;;;;;;;13.40;99.90;;;;;;5069285;28;19912;-75
2021/06/09 03:52:18;;;;;;;;;;;13.40;99.90;;;;;;5067879;28;19919;-74
2021/06/09 03:54:46;;;;;;;;;;;13.40;99.90;;;;;;5059791;28;19913;-75
2021/06/09 03:57:13;;;;;;;;;;;13.40;99.90;;;;;;5066501;28;19915;-74
2021/06/09 03:59:38;;;;;;;;;;;13.50;99.90;;;;;;5068259;28;19916;-74
2021/06/09 04:02:06;;;;;;;;;;;13.50;99.90;;;;;;5068628;28;19917;-75
2021/06/09 04:04:31;;;;;;;;;;;13.60;99.90;;;;;;5069103;28;19909;-75
2021/06/09 04:06:58;;;;;;;;;;;13.60;99.90;;;;;;5068542;28;19924;-75
2021/06/09 04:09:24;;;;;;;;;;;13.60;99.90;;;;;;5067245;28;20235;-74
2021/06/09 04:11:54;;;;;;;;;;;13.60;99.90;;;;;;5064726;28;19912;-75
2021/06/09 04:14:21;;;;;;;;;;;13.70;99.90;;;;;;5068404;28;19999;-74
2021/06/09 04:16:47;;;;;;;;;;;13.70;99.90;;;;;;5068476;28;19916;-74
2021/06/09 04:19:13;;;;;;;;;;;13.70;99.90;;;;;;5064430;28;19986;-74
2021/06/09 04:21:39;;;;;;;;;;;13.80;99.90;;;;;;5068414;28;20382;-74
2021/06/09 04:24:05;;;;;;;;;;;13.80;99.90;;;;;;5069285;28;19912;-74
2021/06/09 04:26:32;;;;;;;;;;;13.90;99.90;;;;;;5067456;28;19908;-74
2021/06/09 04:28:58;;;;;;;;;;;13.90;99.90;;;;;;5068592;28;20456;-74
2021/06/09 04:31:23;;;;;;;;;;;14.00;99.90;;;;;;5063696;28;19940;-74
2021/06/09 04:33:54;;;;;;;;;;;14.10;99.90;;;;;;5068155;28;19915;-74
2021/06/09 04:36:19;;;;;;;;;;;14.20;99.90;;;;;;5068573;28;19915;-74
2021/06/09 04:38:44;;;;;;;;;;;14.20;99.90;;;;;;5065422;28;20322;-74
2021/06/09 04:41:10;;;;;;;;;;;14.30;99.90;;;;;;5065115;28;19912;-74
2021/06/09 04:43:35;;;;;;;;;;;14.40;99.90;;;;;;5067474;28;19908;-74
2021/06/09 04:46:01;;;;;;;;;;;14.50;99.90;;;;;;5068281;28;19909;-74
2021/06/09 04:48:26;;;;;;;;;;;14.60;99.90;;;;;;5067709;28;19908;-74
2021/06/09 04:50:52;;;;;;;;;;;14.60;99.90;;;;;;5053337;28;19919;-74
2021/06/09 04:53:18;;;;;;;;;;;14.80;99.90;;;;;;5067535;28;19944;-85
2021/06/09 04:55:48;;;;;;;;;;;14.90;99.90;;;;;;5065828;28;19920;-78
2021/06/09 04:58:15;;;;;;;;;;;14.90;99.90;;;;;;5066953;28;19915;-77
2021/06/09 05:00:41;;;;;;;;;;;15.10;99.90;;;;;;5066705;28;19912;-75
2021/06/09 05:03:07;;;;;;;;;;;15.10;99.90;;;;;;5070165;28;20354;-75
2021/06/09 05:05:32;;;;;;;;;;;15.20;99.90;;;;;;5071334;28;19908;-80
2021/06/09 05:07:58;;;;;;;;;;;15.30;99.90;;;;;;5069447;28;19973;-78
2021/06/09 05:10:23;;;;;;;;;;;15.50;99.90;;;;;;5070259;28;19961;-76
2021/06/09 05:12:51;;;;;;;;;;;15.60;99.90;;;;;;5071497;28;19966;-76
2021/06/09 05:15:17;;;;;;;;;;;15.70;99.90;;;;;;5071189;28;19912;-75
2021/06/09 05:17:44;;;;;;;;;;;15.70;99.90;;;;;;5071407;28;19916;-75
2021/06/09 05:20:11;;;;;;;;;;;15.80;99.90;;;;;;5069604;28;19958;-76
2021/06/09 05:22:42;;;;;;;;;;;15.80;99.90;;;;;;5070550;28;19916;-75
2021/06/09 05:25:08;;;;;;;;;;;15.90;99.90;;;;;;5070195;28;19973;-75
2021/06/09 05:27:35;;;;;;;;;;;15.90;99.90;;;;;;5071803;28;20000;-75
2021/06/09 05:30:02;;;;;;;;;;;16.00;99.90;;;;;;5062349;28;19996;-72
2021/06/09 05:32:28;;;;;;;;;;;16.20;99.80;;;;;;5057408;28;19916;-73
2021/06/09 05:34:55;;;;;;;;;;;16.30;99.90;;;;;;5059194;28;19919;-74
2021/06/09 05:37:20;;;;;;;;;;;16.40;99.90;;;;;;5059182;28;19931;-73
2021/06/09 05:39:46;;;;;;;;;;;16.40;99.90;;;;;;5068454;28;20390;-73
2021/06/09 05:42:13;;;;;;;;;;;16.50;99.90;;;;;;5057740;28;19916;-74
2021/06/09 05:44:42;;;;;;;;;;;16.50;99.90;;;;;;5065292;28;19961;-73
2021/06/09 05:47:08;;;;;;;;;;;16.60;99.90;;;;;;5067944;28;19908;-73
2021/06/09 05:49:33;;;;;;;;;;;16.60;99.90;;;;;;5066536;28;20552;-74
2021/06/09 05:51:59;;;;;;;;;;;16.60;98.60;;;;;;5065669;28;19970;-73
2021/06/09 05:54:31;;;;;;;;;;;16.70;97.70;;;;;;5065102;28;19912;-73
2021/06/09 05:56:57;;;;;;;;;;;16.80;98.50;;;;;;5059893;28;19912;-73
2021/06/09 05:59:22;;;;;;;;;;;16.80;97.70;;;;;;5065968;28;19912;-75
2021/06/09 06:01:49;;;;;;;;;;;16.80;97.60;;;;;;5058301;28;19908;-73
2021/06/09 06:04:14;;;;;;;;;;;16.90;96.40;;;;;;5061437;28;19951;-74
2021/06/09 06:06:40;;;;;;;;;;;16.90;95.00;;;;;;5063085;28;19985;-74
2021/06/09 06:09:06;;;;;;;;;;;17.00;95.00;;;;;;5055041;28;19927;-74
2021/06/09 06:11:33;;;;;;;;;;;17.10;96.30;;;;;;5059464;28;19913;-74
2021/06/09 06:14:03;;;;;;;;;;;17.10;95.70;;;;;;5069530;28;20374;-74
2021/06/09 06:16:28;;;;;;;;;;;17.20;95.60;;;;;;5067222;28;20420;-75
2021/06/09 06:18:54;;;;;;;;;;;17.20;93.70;;;;;;5066781;28;19912;-75
2021/06/09 06:21:20;;;;;;;;;;;17.30;94.20;;;;;;5066848;28;19956;-75
2021/06/09 06:23:46;;;;;;;;;;;17.30;92.40;;;;;;5069031;28;19969;-75
2021/06/09 06:26:14;;;;;;;;;;;17.40;92.30;;;;;;5068489;28;20178;-75
2021/06/09 06:28:41;;;;;;;;;;;17.40;93.40;;;;;;5068511;28;19962;-75
2021/06/09 06:31:11;;;;;;;;;;;17.50;93.50;;;;;;5069718;28;19925;-77
2021/06/09 06:33:37;;;;;;;;;;;17.50;93.80;;;;;;5065931;28;20340;-76
2021/06/09 06:36:10;;;;;;;;;;;17.60;92.40;;;;;;5068917;28;20367;-74
2021/06/09 06:38:37;;;;;;;;;;;17.70;91.50;;;;;;5069298;28;20371;-73
2021/06/09 06:41:05;;;;;;;;;;;17.70;93.00;;;;;;5068370;28;19935;-74
2021/06/09 06:43:31;;;;;;;;;;;17.80;95.10;;;;;;5057264;28;20419;-75
2021/06/09 06:45:57;;;;;;;;;;;17.80;92.00;;;;;;5053425;28;20015;-77
2021/06/09 06:48:22;;;;;;;;;;;17.90;92.10;;;;;;5054092;28;19908;-75
2021/06/09 06:50:49;;;;;;;;;;;17.90;92.50;;;;;;5067284;28;19916;-76
2021/06/09 06:53:14;;;;;;;;;;;18.00;93.60;;;;;;5069458;28;19904;-75
2021/06/09 06:55:40;;;;;;;;;;;18.10;93.10;;;;;;5060336;28;19925;-73
2021/06/09 06:58:06;;;;;;;;;;;18.10;90.20;;;;;;5068966;28;19908;-74
2021/06/09 07:00:32;;;;;;;;;;;18.20;92.20;;;;;;5062760;28;19919;-74
2021/06/09 07:02:59;;;;;;;;;;;18.20;92.50;;;;;;5067568;28;19912;-74
2021/06/09 07:05:26;;;;;;;;;;;18.30;93.30;;;;;;5067839;28;19908;-74
2021/06/09 07:07:52;;;;;;;;;;;18.40;92.60;;;;;;5068534;28;19923;-82
2021/06/09 07:10:21;;;;;;;;;;;18.50;93.70;;;;;;5067269;28;19916;-74
2021/06/09 07:12:46;;;;;;;;;;;18.60;91.70;;;;;;5064907;28;20389;-77
2021/06/09 07:15:16;;;;;;;;;;;18.70;90.90;;;;;;5075236;28;19965;-77
2021/06/09 07:17:44;;;;;;;;;;;18.70;90.20;;;;;;5060008;28;19935;-77
2021/06/09 07:20:11;;;;;;;;;;;18.80;90.20;;;;;;5068169;28;20489;-79
2021/06/09 07:22:37;;;;;;;;;;;18.90;90.10;;;;;;5057037;28;19930;-77
2021/06/09 07:25:04;;;;;;;;;;;19.00;82.90;;;;;;5061207;28;19962;-76
2021/06/09 07:27:32;;;;;;;;;;;19.00;83.30;;;;;;5062460;28;19908;-77
2021/06/09 07:29:58;;;;;;;;;;;19.10;82.40;;;;;;5068975;28;19912;-77
2021/06/09 07:32:25;;;;;;;;;;;19.10;83.50;;;;;;5068247;28;19922;-77
2021/06/09 07:34:50;;;;;;;;;;;19.20;85.10;;;;;;5069055;28;19936;-77
2021/06/09 07:37:18;;;;;;;;;;;19.20;82.70;;;;;;5058242;28;19970;-77
2021/06/09 07:39:45;;;;;;;;;;;19.30;84.20;;;;;;5068701;28;19995;-76
2021/06/09 07:42:14;;;;;;;;;;;19.30;77.20;;;;;;5069419;28;19912;-77
2021/06/09 07:44:45;;;;;;;;;;;19.40;77.40;;;;;;5068261;28;19908;-77
2021/06/09 07:47:12;;;;;;;;;;;19.40;80.00;;;;;;5064834;28;20094;-77
2021/06/09 07:49:38;;;;;;;;;;;19.40;78.00;;;;;;5068971;28;19954;-76
2021/06/09 07:52:04;;;;;;;;;;;19.50;77.20;;;;;;5068967;28;20453;-77
2021/06/09 07:54:30;;;;;;;;;;;19.60;80.10;;;;;;5063321;28;19913;-77
2021/06/09 07:57:00;;;;;;;;;;;19.70;82.80;;;;;;5069059;28;19916;-77
2021/06/09 07:59:26;;;;;;;;;;;19.80;84.10;;;;;;5064096;28;19912;-77
2021/06/09 08:01:51;;;;;;;;;;;19.90;80.30;;;;;;5068618;28;19912;-77
2021/06/09 08:04:16;;;;;;;;;;;20.00;82.30;;;;;;5066863;28;19953;-77
2021/06/09 08:06:42;;;;;;;;;;;20.00;79.00;;;;;;5068673;28;19950;-77
2021/06/09 08:09:08;;;;;;;;;;;20.10;76.00;;;;;;5068873;28;19969;-77
2021/06/09 08:11:35;;;;;;;;;;;20.10;73.60;;;;;;5069206;28;19905;-77
2021/06/09 08:14:01;;;;;;;;;;;20.10;71.50;;;;;;5065923;28;20476;-76
2021/06/09 08:16:28;;;;;;;;;;;20.20;73.10;;;;;;5068049;28;19946;-77
2021/06/09 08:18:53;;;;;;;;;;;20.10;71.10;;;;;;5067520;28;20359;-76
2021/06/09 08:21:21;;;;;;;;;;;20.20;73.10;;;;;;5068879;28;19993;-76
2021/06/09 08:23:48;;;;;;;;;;;20.20;71.10;;;;;;5067993;28;19954;-77
2021/06/09 08:26:15;;;;;;;;;;;20.30;69.40;;;;;;5067677;28;20373;-76
2021/06/09 08:28:43;;;;;;;;;;;20.40;69.40;;;;;;5068548;28;20594;-77
2021/06/09 08:31:10;;;;;;;;;;;20.40;72.50;;;;;;5062515;28;19983;-76
2021/06/09 08:33:36;;;;;;;;;;;20.50;73.00;;;;;;5068981;28;19908;-77
2021/06/09 08:36:03;;;;;;;;;;;20.60;72.80;;;;;;5072696;28;19919;-77
2021/06/09 08:38:28;;;;;;;;;;;20.70;73.70;;;;;;5066483;28;19925;-77
2021/06/09 08:40:54;;;;;;;;;;;20.80;70.60;;;;;;5068197;28;19912;-76
2021/06/09 08:43:21;;;;;;;;;;;20.80;68.70;;;;;;5068138;28;19909;-77
2021/06/09 08:45:47;;;;;;;;;;;20.90;67.50;;;;;;5072497;28;19995;-76
2021/06/09 08:48:14;;;;;;;;;;;21.00;65.80;;;;;;5069854;28;19946;-76
2021/06/09 08:50:40;;;;;;;;;;;21.10;67.00;;;;;;5057939;28;20383;-77
2021/06/09 08:53:06;;;;;;;;;;;21.10;72.20;;;;;;5067023;28;19940;-77
2021/06/09 08:55:32;;;;;;;;;;;21.20;68.80;;;;;;5064871;28;19969;-77
2021/06/09 08:57:58;;;;;;;;;;;21.30;69.00;;;;;;5071654;28;19908;-76
2021/06/09 09:00:25;;;;;;;;;;;21.30;67.40;;;;;;5065969;28;19919;-77
2021/06/09 09:02:51;;;;;;;;;;;21.30;68.80;;;;;;5072394;28;19905;-74
2021/06/09 09:05:17;;;;;;;;;;;21.30;66.30;;;;;;5060410;28;20287;-77
2021/06/09 09:07:43;;;;;;;;;;;21.30;70.90;;;;;;5071991;28;19905;-77
2021/06/09 09:10:09;;;;;;;;;;;21.30;64.90;;;;;;5065061;28;19917;-77
2021/06/09 09:12:36;;;;;;;;;;;21.40;69.90;;;;;;5067659;28;20374;-77
2021/06/09 09:15:02;;;;;;;;;;;21.50;70.80;;;;;;5068472;28;20430;-77
2021/06/09 09:17:28;;;;;;;;;;;21.70;71.60;;;;;;5071846;28;19904;-77
2021/06/09 09:20:03;;;;;;;;;;;21.70;68.60;;;;;;5071156;28;20003;-77
2021/06/09 09:22:33;;;;;;;;;;;21.80;64.70;;;;;;5071986;28;19950;-75
2021/06/09 09:24:59;;;;;;;;;;;21.80;67.10;;;;;;5066968;28;19912;-75
2021/06/09 09:27:29;;;;;;;;;;;21.90;63.40;;;;;;5063737;28;19922;-75
2021/06/09 09:29:58;;;;;;;;;;;21.90;61.50;;;;;;5070941;28;20003;-77
2021/06/09 09:32:24;;;;;;;;;;;21.80;63.40;;;;;;5070309;28;19915;-76
2021/06/09 09:34:51;;;;;;;;;;;21.90;63.00;;;;;;5071467;28;19995;-77
2021/06/09 09:37:18;;;;;;;;;;;22.10;65.40;;;;;;5071436;28;19962;-77
2021/06/09 09:40:06;;;;;;;;;;;22.10;60.30;;;;;;5070302;28;19909;-77
2021/06/09 09:42:34;;;;;;;;;;;22.10;61.60;;;;;;5070258;28;19946;-77
2021/06/09 09:45:13;;;;;;;;;;;22.20;61.80;;;;;;5071142;28;20018;-76
2021/06/09 09:47:38;;;;;;;;;;;22.30;67.00;;;;;;5071031;28;20252;-75
2021/06/09 09:50:04;;;;;;;;;;;22.40;63.60;;;;;;5071106;28;19912;-76
2021/06/09 09:52:45;;;;;;;;;;;22.50;61.90;;;;;;5071130;28;19915;-76
2021/06/09 09:55:11;;;;;;;;;;;22.50;61.90;;;;;;5065660;28;19916;-76
2021/06/09 09:57:38;;;;;;;;;;;22.50;61.90;;;;;;5070694;28;19954;-74
2021/06/09 10:00:06;;;;;;;;;;;22.50;62.30;;;;;;5069313;28;20362;-75
2021/06/09 10:02:32;;;;;;;;;;;22.60;63.40;;;;;;5072055;28;20317;-76
2021/06/09 10:05:09;;;;;;;;;;;22.60;60.90;;;;;;5069530;28;20114;-76
2021/06/09 10:07:35;;;;;;;;;;;22.70;63.30;;;;;;5068857;28;20003;-76
2021/06/09 10:10:01;;;;;;;;;;;22.70;63.10;;;;;;5070861;28;19995;-76
2021/06/09 10:12:26;;;;;;;;;;;22.70;61.40;;;;;;5064552;28;20361;-76
2021/06/09 10:14:52;;;;;;;;;;;22.70;63.90;;;;;;5069929;28;19991;-75
2021/06/09 10:17:28;;;;;;;;;;;22.70;63.00;;;;;;5069592;28;19912;-80
2021/06/09 10:20:00;;;;;;;;;;;22.80;63.60;;;;;;5069642;28;19977;-76
2021/06/09 10:22:33;;;;;;;;;;;23.00;65.00;;;;;;5079352;28;19904;-77
2021/06/09 10:25:00;;;;;;;;;;;23.00;63.30;;;;;;5064645;28;20382;-75
2021/06/09 10:27:39;;;;;;;;;;;23.00;61.20;;;;;;5067359;28;19943;-77
2021/06/09 10:30:20;;;;;;;;;;;23.10;63.90;;;;;;5059592;28;20374;-77
2021/06/09 10:32:47;;;;;;;;;;;23.30;64.50;;;;;;5065492;28;19916;-76
2021/06/09 10:35:13;;;;;;;;;;;23.30;64.90;;;;;;5065532;28;20308;-77
2021/06/09 10:37:38;;;;;;;;;;;23.40;60.20;;;;;;5065753;28;19927;-76
2021/06/09 10:40:05;;;;;;;;;;;23.50;61.60;;;;;;5065805;28;20378;-77
2021/06/09 10:42:31;;;;;;;;;;;23.60;58.30;;;;;;5067689;28;19908;-76
2021/06/09 10:44:56;;;;;;;;;;;23.80;60.10;;;;;;5062020;28;20408;-77
2021/06/09 10:47:30;;;;;;;;;;;24.00;59.50;;;;;;5064053;28;20265;-76
2021/06/09 10:49:56;;;;;;;;;;;24.20;57.40;;;;;;5062737;28;19912;-77
2021/06/09 10:52:23;;;;;;;;;;;24.40;58.40;;;;;;5068070;28;19915;-76
2021/06/09 10:54:48;;;;;;;;;;;24.40;56.90;;;;;;5063810;28;19931;-76
2021/06/09 10:57:14;;;;;;;;;;;24.60;57.30;;;;;;5056179;28;19908;-75
2021/06/09 10:59:39;;;;;;;;;;;24.80;56.30;;;;;;5069191;28;19986;-75
2021/06/09 11:02:09;;;;;;;;;;;25.00;56.80;;;;;;5068884;28;19935;-74
2021/06/09 11:04:36;;;;;;;;;;;25.20;54.50;;;;;;5068748;28;19966;-75
2021/06/09 11:07:02;;;;;;;;;;;25.40;53.50;;;;;;5068923;28;19921;-75
2021/06/09 11:09:29;;;;;;;;;;;25.50;55.90;;;;;;5068314;28;20333;-75
2021/06/09 11:12:12;;;;;;;;;;;25.60;53.70;;;;;;5064630;28;20405;-75
2021/06/09 11:14:43;;;;;;;;;;;25.70;55.50;;;;;;5062118;28;20455;-75
2021/06/09 11:17:08;;;;;;;;;;;25.90;54.80;;;;;;5067034;28;19948;-75
2021/06/09 11:19:37;;;;;;;;;;;26.10;53.20;;;;;;5069560;28;19964;-73
2021/06/09 11:22:16;;;;;;;;;;;26.30;54.00;;;;;;5066148;28;19916;-73
2021/06/09 11:25:02;;;;;;;;;;;26.70;51.90;;;;;;5066449;28;19991;-74
2021/06/09 11:27:28;;;;;;;;;;;27.00;52.80;;;;;;5068732;28;19919;-75
2021/06/09 11:29:53;;;;;;;;;;;27.40;51.20;;;;;;5065597;28;19908;-76
2021/06/09 11:32:19;;;;;;;;;;;27.80;50.00;;;;;;5063996;28;19956;-76
2021/06/09 11:34:58;;;;;;;;;;;28.40;49.80;;;;;;5065309;28;20662;-75
2021/06/09 11:37:24;;;;;;;;;;;28.90;47.00;;;;;;5068061;28;19912;-75
2021/06/09 11:39:59;;;;;;;;;;;29.40;47.10;;;;;;5064575;28;20358;-75
2021/06/09 11:42:25;;;;;;;;;;;29.70;45.80;;;;;;5065698;28;19911;-76
2021/06/09 11:44:52;;;;;;;;;;;30.30;44.90;;;;;;5069282;28;19904;-75
2021/06/09 11:47:19;;;;;;;;;;;30.70;45.00;;;;;;5068732;28;20274;-75
2021/06/09 11:49:45;;;;;;;;;;;31.10;44.00;;;;;;5058026;28;19908;-75
2021/06/09 11:52:11;;;;;;;;;;;31.50;43.30;;;;;;5061532;28;20268;-76
2021/06/09 11:54:37;;;;;;;;;;;31.70;42.30;;;;;;5068577;28;20003;-75
2021/06/09 11:57:26;;;;;;;;;;;30.90;41.90;;;;;;5063271;28;19912;-76
2021/06/09 11:59:51;;;;;;;;;;;30.00;43.70;;;;;;5068074;28;19917;-75
2021/06/09 12:02:18;;;;;;;;;;;29.60;44.20;;;;;;5068504;28;20282;-75
2021/06/09 12:04:45;;;;;;;;;;;29.00;44.10;;;;;;5068719;28;19905;-76
2021/06/09 12:07:11;;;;;;;;;;;29.20;46.40;;;;;;5066768;28;19909;-76
2021/06/09 12:09:41;;;;;;;;;;;30.00;45.50;;;;;;5064841;28;19908;-76
2021/06/09 12:12:13;;;;;;;;;;;30.00;43.40;;;;;;5065943;28;19940;-75
2021/06/09 12:14:40;;;;;;;;;;;29.30;44.60;;;;;;5071549;28;19928;-75
2021/06/09 12:17:11;;;;;;;;;;;28.60;45.30;;;;;;5064848;28;19912;-83
2021/06/09 12:19:41;;;;;;;;;;;28.70;47.20;;;;;;5066924;28;20385;-76
2021/06/09 12:22:08;;;;;;;;;;;29.70;45.80;;;;;;5067693;28;19958;-78
2021/06/09 12:24:35;;;;;;;;;;;31.30;44.60;;;;;;5067642;28;19916;-80
2021/06/09 12:27:05;;;;;;;;;;;32.70;40.70;;;;;;5068118;28;19912;-77
2021/06/09 12:29:32;;;;;;;;;;;33.80;38.90;;;;;;5066842;28;21347;-85
2021/06/09 12:31:59;;;;;;;;;;;34.80;37.60;;;;;;5068709;28;20278;-83
2021/06/09 12:34:29;;;;;;;;;;;35.40;33.80;;;;;;5064149;28;19960;-89
2021/06/09 12:36:56;;;;;;;;;;;35.80;32.20;;;;;;5057504;28;20093;-81
2021/06/09 12:39:26;;;;;;;;;;;36.00;32.20;;;;;;5057137;28;20351;-83
2021/06/09 12:41:51;;;;;;;;;;;35.70;34.20;;;;;;5065384;28;20010;-81
2021/06/09 12:44:17;;;;;;;;;;;35.10;31.40;;;;;;5068287;28;20007;-82
2021/06/09 12:46:49;;;;;;;;;;;35.10;33.40;;;;;;5068160;28;19908;-75
2021/06/09 12:49:26;;;;;;;;;;;35.00;33.70;;;;;;5064713;28;20275;-86
2021/06/09 12:52:11;;;;;;;;;;;34.60;35.40;;;;;;5062659;28;19915;-86
2021/06/09 12:54:49;;;;;;;;;;;33.00;37.20;;;;;;5074440;28;19966;-87
2021/06/09 12:57:15;;;;;;;;;;;31.60;39.40;;;;;;5067387;28;19908;-83
2021/06/09 12:59:40;;;;;;;;;;;30.50;41.60;;;;;;5067016;28;19920;-88
2021/06/09 13:02:06;;;;;;;;;;;29.70;42.80;;;;;;5066854;28;19958;-88
2021/06/09 13:04:40;;;;;;;;;;;29.50;41.70;;;;;;5076652;28;19904;-87
2021/06/09 13:07:06;;;;;;;;;;;30.40;42.70;;;;;;5064890;28;19939;-80
2021/06/09 13:09:31;;;;;;;;;;;31.90;40.50;;;;;;5058539;28;20371;-81
2021/06/09 13:11:57;;;;;;;;;;;33.20;36.10;;;;;;5066129;28;19909;-85
2021/06/09 13:14:29;;;;;;;;;;;34.20;33.00;;;;;;5068614;28;20015;-86
2021/06/09 13:16:59;;;;;;;;;;;35.00;33.40;;;;;;5067216;28;20003;-82
2021/06/09 13:19:26;;;;;;;;;;;35.70;32.80;;;;;;5067473;28;19913;-80
2021/06/09 13:21:54;;;;;;;;;;;36.20;34.30;;;;;;5065369;28;19991;-80
2021/06/09 13:24:27;;;;;;;;;;;36.40;33.40;;;;;;5053487;28;19908;-82
2021/06/09 13:26:55;;;;;;;;;;;36.80;32.80;;;;;;5074709;28;19912;-84
2021/06/09 13:29:25;;;;;;;;;;;36.80;32.60;;;;;;5070350;28;19931;-81
2021/06/09 13:31:52;;;;;;;;;;;37.00;32.60;;;;;;5063860;28;19908;-81
2021/06/09 13:34:22;;;;;;;;;;;37.20;32.70;;;;;;5071962;28;19912;-80
2021/06/09 13:36:56;;;;;;;;;;;36.60;32.90;;;;;;5069437;28;19962;-81
2021/06/09 13:39:22;;;;;;;;;;;35.30;34.10;;;;;;5071460;28;19905;-81
2021/06/09 13:41:49;;;;;;;;;;;34.50;34.30;;;;;;5069336;28;19916;-80
2021/06/09 13:44:14;;;;;;;;;;;33.20;37.40;;;;;;5070970;28;19928;-79
2021/06/09 13:46:43;;;;;;;;;;;32.20;38.90;;;;;;5071092;28;19909;-82
2021/06/09 13:49:09;;;;;;;;;;;32.60;40.70;;;;;;5070862;28;19908;-82
2021/06/09 13:51:38;;;;;;;;;;;33.40;37.70;;;;;;5068509;28;20387;-86
2021/06/09 13:54:06;;;;;;;;;;;34.40;36.50;;;;;;5070826;28;20371;-85
2021/06/09 13:56:37;;;;;;;;;;;35.10;35.70;;;;;;5070379;28;20585;-86
2021/06/09 13:59:15;;;;;;;;;;;35.70;34.70;;;;;;5052412;28;19940;-88
2021/06/09 14:01:40;;;;;;;;;;;36.10;34.30;;;;;;5070706;28;20007;-86
2021/06/09 14:04:06;;;;;;;;;;;36.70;33.40;;;;;;5070979;28;19948;-81
2021/06/09 14:06:32;;;;;;;;;;;37.40;32.10;;;;;;5071045;28;19954;-80
2021/06/09 14:09:02;;;;;;;;;;;37.40;32.30;;;;;;5069442;28;19908;-79
2021/06/09 14:11:28;;;;;;;;;;;37.60;32.10;;;;;;5059548;28;20341;-81
2021/06/09 14:13:53;;;;;;;;;;;37.70;31.40;;;;;;5069606;28;19908;-82
2021/06/09 14:16:20;;;;;;;;;;;37.50;31.50;;;;;;5070607;28;19909;-81
2021/06/09 14:18:46;;;;;;;;;;;36.10;33.00;;;;;;5069822;28;19958;-78